| time (UTC) | temp F | wind direction | speed MPH | gust MPH | rain 1hr in | rain 24hr in | rain mn in | humidity % | barometer mb |
| 20260502151551 | 53 | 250 | 4.0 | 9.0 | 0.00 | 0.00 | 0.00 | 43 | 1018.2 |
| 20260502151048 | 53 | 251 | 4.0 | 8.0 | 0.00 | 0.00 | 0.00 | 43 | 1018.2 |
| 20260502150546 | 53 | 269 | 4.0 | 9.0 | 0.00 | 0.00 | 0.00 | 44 | 1018.3 |
| 20260502130521 | 44 | 259 | 2.0 | 7.0 | 0.00 | 0.00 | 0.00 | 63 | 1018.8 |
| 20260502123512 | 42 | 294 | 1.0 | 4.0 | 0.00 | 0.00 | 0.00 | 65 | 1018.7 |
| 20260502123011 | 41 | 303 | 0.0 | 3.0 | 0.00 | 0.00 | 0.00 | 65 | 1018.8 |
| 20260502122508 | 41 | 303 | 1.0 | 3.0 | 0.00 | 0.00 | 0.00 | 65 | 1018.8 |
| 20260502121520 | 40 | 303 | 0.0 | 3.0 | 0.00 | 0.00 | 0.00 | 66 | 1018.9 |
| 20260502121005 | 40 | 303 | 0.0 | 2.0 | 0.00 | 0.00 | 0.00 | 65 | 1018.8 |
| 20260502120504 | 40 | 303 | 0.0 | 3.0 | 0.00 | 0.00 | 0.00 | 66 | 1018.8 |
| 20260502115601 | 39 | 303 | 0.0 | 2.0 | 0.00 | 0.00 | 0.00 | 67 | 1018.8 |
| 20260502115104 | 39 | 303 | 0.0 | 2.0 | 0.00 | 0.00 | 0.00 | 68 | 1018.7 |
| 20260502114559 | 38 | 303 | 0.0 | 2.0 | 0.00 | 0.00 | 0.00 | 69 | 1018.7 |
| 20260502114058 | 38 | 304 | 0.0 | 1.0 | 0.00 | 0.00 | 0.00 | 70 | 1018.7 |
| 20260502113602 | 38 | 303 | 0.0 | 1.0 | 0.00 | 0.00 | 0.00 | 71 | 1018.6 |
| 20260502113058 | 37 | 303 | 0.0 | 1.0 | 0.00 | 0.00 | 0.00 | 72 | 1018.5 |
| 20260502112557 | 36 | 303 | 0.0 | 0.0 | 0.00 | 0.00 | 0.00 | 72 | 1018.6 |
| 20260502111618 | 36 | 303 | 0.0 | 0.0 | 0.00 | 0.00 | 0.00 | 72 | 1018.6 |
| 20260502111102 | 36 | 303 | 0.0 | 0.0 | 0.00 | 0.00 | 0.00 | 71 | 1018.5 |
| 20260502110558 | 36 | 303 | 0.0 | 0.0 | 0.00 | 0.00 | 0.00 | 71 | 1018.5 |
| 20260502110058 | 36 | 303 | 0.0 | 0.0 | 0.00 | 0.00 | 0.00 | 71 | 1018.5 |
| 20260502105600 | 37 | 303 | 0.0 | 0.0 | 0.00 | 0.00 | 0.00 | 71 | 1018.5 |
| 20260502105057 | 37 | 304 | 0.0 | 0.0 | 0.00 | 0.00 | 0.00 | 71 | 1018.5 |
| 20260502104556 | 37 | 303 | 0.0 | 0.0 | 0.00 | 0.00 | 0.00 | 71 | 1018.5 |
| 20260502104056 | 37 | 303 | 0.0 | 0.0 | 0.00 | 0.00 | 0.00 | 71 | 1018.4 |
| 20260502103556 | 37 | 303 | 0.0 | 0.0 | 0.00 | 0.00 | 0.00 | 70 | 1018.4 |
| 20260502103108 | 37 | 303 | 0.0 | 0.0 | 0.00 | 0.00 | 0.00 | 70 | 1018.5 |
| 20260502102556 | 38 | 304 | 0.0 | 0.0 | 0.00 | 0.00 | 0.00 | 69 | 1018.5 |
| 20260502101609 | 38 | 303 | 0.0 | 1.0 | 0.00 | 0.00 | 0.00 | 68 | 1018.4 |
| 20260502101054 | 38 | 304 | 0.0 | 0.0 | 0.00 | 0.00 | 0.00 | 68 | 1018.4 |
| 20260502100553 | 38 | 303 | 0.0 | 0.0 | 0.00 | 0.00 | 0.00 | 67 | 1018.5 |
| 20260502091053 | 39 | 304 | 0.0 | 0.0 | 0.00 | 0.00 | 0.00 | 67 | 1018.4 |
| 20260502090556 | 39 | 304 | 0.0 | 3.0 | 0.00 | 0.00 | 0.00 | 67 | 1018.4 |
| 20260502071051 | 40 | 36 | 0.0 | 0.0 | 0.00 | 0.00 | 0.00 | 64 | 1018.6 |
| 20260502070551 | 41 | 36 | 0.0 | 0.0 | 0.00 | 0.00 | 0.00 | 64 | 1018.6 |
| 20260502070051 | 41 | 36 | 0.0 | 0.0 | 0.00 | 0.00 | 0.00 | 63 | 1018.7 |
| 20260502065551 | 41 | 36 | 0.0 | 0.0 | 0.00 | 0.00 | 0.00 | 62 | 1018.7 |
| 20260502065050 | 41 | 36 | 0.0 | 0.0 | 0.00 | 0.00 | 0.00 | 61 | 1018.8 |
| 20260502064551 | 41 | 36 | 0.0 | 0.0 | 0.00 | 0.00 | 0.00 | 61 | 1018.8 |
| 20260502064052 | 41 | 36 | 0.0 | 0.0 | 0.00 | 0.00 | 0.00 | 61 | 1018.9 |
| 20260502063550 | 41 | 36 | 0.0 | 1.0 | 0.00 | 0.00 | 0.00 | 60 | 1018.9 |
| 20260502063050 | 41 | 36 | 0.0 | 1.0 | 0.00 | 0.00 | 0.00 | 59 | 1018.9 |
| 20260502062551 | 41 | 36 | 0.0 | 0.0 | 0.00 | 0.00 | 0.00 | 59 | 1018.9 |
| 20260502061553 | 41 | 36 | 0.0 | 0.0 | 0.00 | 0.00 | 0.00 | 58 | 1018.9 |
| 20260502061051 | 42 | 36 | 0.0 | 0.0 | 0.00 | 0.00 | 0.00 | 57 | 1018.9 |
| 20260502060551 | 42 | 36 | 0.0 | 0.0 | 0.00 | 0.00 | 0.00 | 57 | 1018.9 |
| 20260502060051 | 42 | 36 | 0.0 | 0.0 | 0.00 | 0.00 | 0.00 | 56 | 1018.8 |
| 20260502055551 | 42 | 36 | 0.0 | 2.0 | 0.00 | 0.00 | 0.00 | 55 | 1018.8 |
| 20260502055051 | 42 | 36 | 0.0 | 2.0 | 0.00 | 0.00 | 0.00 | 55 | 1018.9 |
| 20260502054558 | 42 | 36 | 0.0 | 2.0 | 0.00 | 0.00 | 0.00 | 55 | 1018.9 |
| 20260502054053 | 42 | 36 | 0.0 | 2.0 | 0.00 | 0.00 | 0.00 | 55 | 1018.9 |
| 20260502053550 | 42 | 36 | 0.0 | 2.0 | 0.00 | 0.00 | 0.00 | 54 | 1018.9 |
| 20260502053054 | 42 | 36 | 0.0 | 0.0 | 0.00 | 0.00 | 0.00 | 54 | 1018.9 |
| 20260502052550 | 42 | 36 | 0.0 | 0.0 | 0.00 | 0.00 | 0.00 | 54 | 1018.9 |
| 20260502051549 | 42 | 36 | 0.0 | 0.0 | 0.00 | 0.00 | 0.00 | 53 | 1018.8 |
| 20260502051050 | 43 | 36 | 0.0 | 0.0 | 0.00 | 0.00 | 0.00 | 52 | 1018.8 |
| 20260502050549 | 43 | 36 | 0.0 | 1.0 | 0.00 | 0.00 | 0.00 | 52 | 1018.9 |
| 20260502050049 | 43 | 36 | 0.0 | 1.0 | 0.00 | 0.00 | 0.00 | 51 | 1018.7 |
| 20260502045552 | 43 | 36 | 0.0 | 0.0 | 0.00 | 0.00 | 0.00 | 52 | 1018.8 |
| 20260502045049 | 43 | 36 | 0.0 | 0.0 | 0.00 | 0.00 | 0.00 | 52 | 1018.7 |
| 20260502044550 | 43 | 36 | 0.0 | 0.0 | 0.00 | 0.00 | 0.00 | 50 | 1018.7 |
| 20260502044049 | 43 | 36 | 0.0 | 0.0 | 0.00 | 0.00 | 0.00 | 50 | 1018.7 |
| 20260502043550 | 43 | 36 | 0.0 | 0.0 | 0.00 | 0.00 | 0.00 | 50 | 1018.7 |
| 20260502043051 | 44 | 36 | 0.0 | 0.0 | 0.00 | 0.00 | 0.00 | 50 | 1018.7 |
| 20260502042551 | 44 | 36 | 0.0 | 0.0 | 0.00 | 0.00 | 0.00 | 49 | 1018.8 |
| 20260502041550 | 44 | 36 | 0.0 | 0.0 | 0.00 | 0.00 | 0.00 | 49 | 1018.7 |
| 20260502041049 | 44 | 36 | 0.0 | 0.0 | 0.00 | 0.00 | 0.00 | 49 | 1018.7 |
| 20260502040549 | 44 | 36 | 0.0 | 0.0 | 0.00 | 0.00 | 0.00 | 49 | 1018.8 |
| 20260502040049 | 44 | 36 | 0.0 | 0.0 | 0.00 | 0.00 | 0.00 | 48 | 1018.8 |
| 20260502035551 | 45 | 36 | 0.0 | 0.0 | 0.00 | 0.00 | 0.00 | 48 | 1018.9 |
| 20260502035049 | 45 | 36 | 0.0 | 0.0 | 0.00 | 0.00 | 0.00 | 48 | 1018.8 |
| 20260502034549 | 45 | 36 | 0.0 | 0.0 | 0.00 | 0.00 | 0.00 | 47 | 1018.9 |
| 20260502034049 | 45 | 36 | 0.0 | 0.0 | 0.00 | 0.00 | 0.00 | 46 | 1018.9 |
| 20260502033549 | 45 | 36 | 0.0 | 1.0 | 0.00 | 0.00 | 0.00 | 46 | 1018.9 |
| 20260502033049 | 46 | 36 | 0.0 | 2.0 | 0.00 | 0.00 | 0.00 | 45 | 1018.9 |
| 20260502032549 | 46 | 36 | 0.0 | 2.0 | 0.00 | 0.00 | 0.00 | 45 | 1018.9 |
| 20260502031549 | 46 | 36 | 0.0 | 0.0 | 0.00 | 0.00 | 0.00 | 44 | 1018.9 |
| 20260502031049 | 46 | 36 | 0.0 | 0.0 | 0.00 | 0.00 | 0.00 | 44 | 1018.9 |
| 20260502030549 | 46 | 36 | 0.0 | 0.0 | 0.00 | 0.00 | 0.00 | 44 | 1018.9 |
| 20260502030054 | 46 | 36 | 0.0 | 0.0 | 0.00 | 0.00 | 0.00 | 44 | 1018.9 |
| 20260502025549 | 46 | 36 | 0.0 | 0.0 | 0.00 | 0.00 | 0.00 | 43 | 1018.9 |
| 20260502025051 | 46 | 36 | 0.0 | 0.0 | 0.00 | 0.00 | 0.00 | 43 | 1018.8 |
| 20260502024552 | 46 | 36 | 0.0 | 0.0 | 0.00 | 0.00 | 0.00 | 43 | 1018.8 |
| 20260502024048 | 46 | 36 | 0.0 | 0.0 | 0.00 | 0.00 | 0.00 | 42 | 1018.8 |
| 20260502023552 | 46 | 36 | 0.0 | 0.0 | 0.00 | 0.00 | 0.00 | 42 | 1018.8 |
| 20260502023052 | 46 | 36 | 0.0 | 0.0 | 0.00 | 0.00 | 0.00 | 41 | 1018.8 |
| 20260502022550 | 46 | 36 | 0.0 | 0.0 | 0.00 | 0.00 | 0.00 | 41 | 1018.8 |
| 20260502021548 | 47 | 36 | 0.0 | 0.0 | 0.00 | 0.00 | 0.00 | 41 | 1018.7 |
| 20260502021048 | 47 | 36 | 0.0 | 0.0 | 0.00 | 0.00 | 0.00 | 40 | 1018.7 |
| 20260502020547 | 47 | 36 | 0.0 | 0.0 | 0.00 | 0.00 | 0.00 | 41 | 1018.7 |
| 20260502020047 | 47 | 36 | 0.0 | 0.0 | 0.00 | 0.00 | 0.00 | 40 | 1018.6 |
| 20260502015547 | 48 | 36 | 0.0 | 0.0 | 0.00 | 0.00 | 0.00 | 39 | 1018.6 |
| 20260502015048 | 48 | 36 | 0.0 | 0.0 | 0.00 | 0.00 | 0.00 | 40 | 1018.6 |
| 20260502014549 | 48 | 36 | 0.0 | 0.0 | 0.00 | 0.00 | 0.00 | 40 | 1018.5 |
| 20260502014047 | 49 | 36 | 0.0 | 0.0 | 0.00 | 0.00 | 0.00 | 39 | 1018.4 |
| 20260502013547 | 49 | 36 | 0.0 | 0.0 | 0.00 | 0.00 | 0.00 | 38 | 1018.4 |
| 20260502013050 | 50 | 36 | 0.0 | 0.0 | 0.00 | 0.00 | 0.00 | 38 | 1018.3 |
| 20260502012547 | 50 | 36 | 0.0 | 0.0 | 0.00 | 0.00 | 0.00 | 38 | 1018.3 |
| 20260502011548 | 50 | 36 | 0.0 | 0.0 | 0.00 | 0.00 | 0.00 | 38 | 1018.2 |
| 20260502011047 | 50 | 36 | 0.0 | 0.0 | 0.00 | 0.00 | 0.00 | 39 | 1018.2 |
| 20260502010547 | 51 | 36 | 0.0 | 0.0 | 0.00 | 0.00 | 0.00 | 39 | 1018.2 |
| 20260502010052 | 51 | 36 | 0.0 | 0.0 | 0.00 | 0.00 | 0.00 | 38 | 1018.2 |
| 20260502005547 | 51 | 36 | 0.0 | 0.0 | 0.00 | 0.00 | 0.00 | 37 | 1018.2 |
| 20260502005047 | 51 | 36 | 0.0 | 0.0 | 0.00 | 0.00 | 0.00 | 36 | 1018.2 |
| 20260502004603 | 51 | 36 | 0.0 | 0.0 | 0.00 | 0.00 | 0.00 | 37 | 1018.3 |
| 20260502004048 | 51 | 36 | 0.0 | 0.0 | 0.00 | 0.00 | 0.00 | 37 | 1018.2 |
| 20260502003547 | 51 | 36 | 0.0 | 1.0 | 0.00 | 0.00 | 0.00 | 36 | 1018.2 |
| 20260502003047 | 51 | 36 | 0.0 | 1.0 | 0.00 | 0.00 | 0.00 | 35 | 1018.2 |
| 20260502002548 | 51 | 36 | 0.0 | 1.0 | 0.00 | 0.00 | 0.00 | 36 | 1018.1 |
| 20260502001547 | 51 | 36 | 0.0 | 4.0 | 0.00 | 0.00 | 0.00 | 35 | 1018.2 |
| 20260502001048 | 52 | 36 | 1.0 | 11.0 | 0.00 | 0.00 | 0.00 | 33 | 1018.2 |
| 20260502000548 | 52 | 36 | 5.0 | 11.0 | 0.00 | 0.00 | 0.00 | 33 | 1018.1 |
| 20260502000054 | 52 | 32 | 1.0 | 4.0 | 0.00 | 0.00 | 0.00 | 34 | 1018.1 |
| 20260501235547 | 52 | 32 | 1.0 | 8.0 | 0.00 | 0.00 | 0.00 | 34 | 1018.1 |
| 20260501235047 | 52 | 32 | 2.0 | 11.0 | 0.00 | 0.00 | 0.00 | 33 | 1018.1 |
| 20260501234547 | 52 | 33 | 3.0 | 11.0 | 0.00 | 0.00 | 0.00 | 32 | 1018.2 |
| 20260501234048 | 53 | 355 | 3.0 | 8.0 | 0.00 | 0.00 | 0.00 | 33 | 1018.2 |
| 20260501233547 | 53 | 290 | 1.0 | 5.0 | 0.00 | 0.00 | 0.00 | 34 | 1018.1 |
| 20260501233046 | 52 | 290 | 1.0 | 5.0 | 0.00 | 0.00 | 0.00 | 33 | 1018.1 |
| 20260501232547 | 52 | 290 | 0.0 | 4.0 | 0.00 | 0.00 | 0.00 | 33 | 1018.1 |
| 20260501231546 | 52 | 291 | 1.0 | 7.0 | 0.00 | 0.00 | 0.00 | 33 | 1018.2 |
| 20260501231046 | 53 | 292 | 2.0 | 18.0 | 0.00 | 0.00 | 0.00 | 33 | 1018.1 |
| 20260501230545 | 53 | 292 | 8.0 | 18.0 | 0.00 | 0.00 | 0.00 | 33 | 1017.9 |
| 20260501230046 | 53 | 9 | 1.0 | 6.0 | 0.00 | 0.00 | 0.00 | 33 | 1018.2 |
| 20260501225547 | 52 | 11 | 2.0 | 6.0 | 0.00 | 0.00 | 0.00 | 35 | 1018.1 |
| 20260501225048 | 52 | 9 | 2.0 | 7.0 | 0.00 | 0.00 | 0.00 | 34 | 1018.2 |
| 20260501224545 | 51 | 9 | 4.0 | 7.0 | 0.00 | 0.00 | 0.00 | 34 | 1018.2 |
| 20260501224045 | 51 | 355 | 2.0 | 6.0 | 0.00 | 0.00 | 0.00 | 34 | 1018.1 |
| 20260501223544 | 52 | 355 | 1.0 | 8.0 | 0.00 | 0.00 | 0.00 | 34 | 1018.2 |
| 20260501223047 | 52 | 351 | 0.0 | 5.0 | 0.00 | 0.00 | 0.00 | 34 | 1018.2 |
| 20260501222545 | 52 | 351 | 0.0 | 8.0 | 0.00 | 0.00 | 0.00 | 34 | 1018.3 |
| 20260501221546 | 52 | 336 | 1.0 | 11.0 | 0.00 | 0.00 | 0.00 | 35 | 1018.3 |
| 20260501221049 | 52 | 11 | 3.0 | 10.0 | 0.00 | 0.00 | 0.00 | 35 | 1018.2 |
| 20260501220545 | 52 | 9 | 4.0 | 10.0 | 0.00 | 0.00 | 0.00 | 35 | 1018.2 |
| 20260501220051 | 52 | 326 | 2.0 | 5.0 | 0.00 | 0.00 | 0.00 | 35 | 1018.3 |
| 20260501215550 | 51 | 325 | 2.0 | 5.0 | 0.00 | 0.00 | 0.00 | 36 | 1018.3 |
| 20260501215045 | 50 | 315 | 1.0 | 5.0 | 0.00 | 0.00 | 0.00 | 35 | 1018.3 |
| 20260501214546 | 50 | 319 | 2.0 | 5.0 | 0.00 | 0.00 | 0.00 | 35 | 1018.2 |
| 20260501214045 | 50 | 328 | 2.0 | 4.0 | 0.00 | 0.00 | 0.00 | 37 | 1018.3 |
| 20260501213545 | 50 | 333 | 1.0 | 5.0 | 0.00 | 0.00 | 0.00 | 36 | 1018.3 |
| 20260501213105 | 50 | 360 | 1.0 | 8.0 | 0.00 | 0.00 | 0.00 | 36 | 1018.3 |
| 20260501212545 | 51 | 360 | 2.0 | 8.0 | 0.00 | 0.00 | 0.00 | 34 | 1018.3 |
| 20260501211544 | 51 | 335 | 1.0 | 8.0 | 0.00 | 0.00 | 0.00 | 35 | 1018.4 |
| 20260501211043 | 51 | 9 | 3.0 | 8.0 | 0.00 | 0.00 | 0.00 | 35 | 1018.4 |
| 20260501210543 | 52 | 5 | 2.0 | 17.0 | 0.00 | 0.00 | 0.00 | 35 | 1018.4 |
| 20260501210043 | 53 | 355 | 9.0 | 17.0 | 0.00 | 0.00 | 0.00 | 33 | 1018.4 |
| 20260501205544 | 54 | 5 | 4.0 | 12.0 | 0.00 | 0.00 | 0.00 | 33 | 1018.4 |
| 20260501205044 | 53 | 321 | 1.0 | 9.0 | 0.00 | 0.00 | 0.00 | 34 | 1018.4 |
| 20260501204547 | 53 | 325 | 2.0 | 9.0 | 0.00 | 0.00 | 0.00 | 36 | 1018.5 |
| 20260501204045 | 51 | 297 | 1.0 | 8.0 | 0.00 | 0.00 | 0.00 | 35 | 1018.4 |
| 20260501203541 | 51 | 300 | 1.0 | 10.0 | 0.00 | 0.00 | 0.00 | 36 | 1018.5 |
| 20260501203041 | 51 | 11 | 4.0 | 11.0 | 0.00 | 0.00 | 0.00 | 37 | 1018.5 |
| 20260501202541 | 51 | 36 | 3.0 | 11.0 | 0.00 | 0.00 | 0.00 | 35 | 1018.5 |
| 20260501201541 | 52 | 281 | 2.0 | 9.0 | 0.00 | 0.00 | 0.00 | 33 | 1018.6 |
| 20260501201042 | 52 | 302 | 2.0 | 6.0 | 0.00 | 0.00 | 0.00 | 34 | 1018.6 |
| 20260501200544 | 52 | 288 | 2.0 | 11.0 | 0.00 | 0.00 | 0.00 | 34 | 1018.5 |
| 20260501200043 | 53 | 350 | 2.0 | 11.0 | 0.00 | 0.00 | 0.00 | 34 | 1018.5 |
| 20260501195540 | 53 | 15 | 3.0 | 10.0 | 0.00 | 0.00 | 0.00 | 34 | 1018.6 |
| 20260501195039 | 53 | 310 | 2.0 | 8.0 | 0.00 | 0.00 | 0.00 | 35 | 1018.5 |
| 20260501194542 | 52 | 14 | 3.0 | 10.0 | 0.00 | 0.00 | 0.00 | 34 | 1018.5 |
| 20260501194039 | 52 | 311 | 2.0 | 14.0 | 0.00 | 0.00 | 0.00 | 33 | 1018.6 |
| 20260501193537 | 52 | 355 | 5.0 | 14.0 | 0.00 | 0.00 | 0.00 | 34 | 1018.6 |
| 20260501193037 | 52 | 283 | 1.0 | 11.0 | 0.00 | 0.00 | 0.00 | 35 | 1018.6 |
| 20260501192536 | 52 | 311 | 4.0 | 11.0 | 0.00 | 0.00 | 0.00 | 34 | 1018.7 |
| 20260501191536 | 51 | 323 | 1.0 | 7.0 | 0.00 | 0.00 | 0.00 | 35 | 1018.7 |
| 20260501191037 | 51 | 333 | 2.0 | 10.0 | 0.00 | 0.00 | 0.00 | 34 | 1018.7 |
| 20260501190535 | 50 | 17 | 2.0 | 10.0 | 0.00 | 0.00 | 0.00 | 35 | 1018.7 |
| 20260501190035 | 50 | 297 | 2.0 | 11.0 | 0.00 | 0.00 | 0.00 | 34 | 1018.7 |
| 20260501185535 | 51 | 360 | 4.0 | 11.0 | 0.00 | 0.00 | 0.00 | 34 | 1018.7 |
| 20260501185035 | 51 | 292 | 3.0 | 10.0 | 0.00 | 0.00 | 0.00 | 35 | 1018.7 |
| 20260501184534 | 51 | 319 | 3.0 | 12.0 | 0.00 | 0.00 | 0.00 | 34 | 1018.7 |
| 20260501184036 | 51 | 289 | 6.0 | 12.0 | 0.00 | 0.00 | 0.00 | 34 | 1018.6 |
| 20260501183535 | 51 | 331 | 2.0 | 10.0 | 0.00 | 0.00 | 0.00 | 35 | 1018.7 |
| 20260501183038 | 51 | 5 | 1.0 | 10.0 | 0.00 | 0.00 | 0.00 | 35 | 1018.6 |
| 20260501182533 | 51 | 306 | 3.0 | 9.0 | 0.00 | 0.00 | 0.00 | 35 | 1018.8 |
| 20260501181532 | 50 | 286 | 3.0 | 13.0 | 0.00 | 0.00 | 0.00 | 37 | 1018.8 |
| 20260501181031 | 50 | 360 | 2.0 | 11.0 | 0.00 | 0.00 | 0.00 | 37 | 1018.9 |
| 20260501180531 | 50 | 320 | 2.0 | 13.0 | 0.00 | 0.00 | 0.00 | 37 | 1018.8 |
| 20260501180037 | 50 | 327 | 2.0 | 12.0 | 0.00 | 0.00 | 0.00 | 37 | 1018.8 |
| 20260501175531 | 49 | 293 | 3.0 | 12.0 | 0.00 | 0.00 | 0.00 | 36 | 1018.9 |
| 20260501175033 | 49 | 336 | 1.0 | 10.0 | 0.00 | 0.00 | 0.00 | 36 | 1018.9 |
| 20260501174530 | 50 | 36 | 4.0 | 10.0 | 0.00 | 0.00 | 0.00 | 37 | 1018.9 |
| 20260501174030 | 49 | 289 | 1.0 | 9.0 | 0.00 | 0.00 | 0.00 | 37 | 1018.9 |
| 20260501173529 | 48 | 360 | 4.0 | 9.0 | 0.00 | 0.00 | 0.00 | 38 | 1019.0 |
| 20260501173029 | 49 | 301 | 3.0 | 11.0 | 0.00 | 0.00 | 0.00 | 38 | 1019.0 |
| 20260501172531 | 50 | 302 | 3.0 | 13.0 | 0.00 | 0.00 | 0.00 | 37 | 1018.9 |
| 20260501171529 | 50 | 346 | 3.0 | 6.0 | 0.00 | 0.00 | 0.00 | 37 | 1018.9 |
| 20260501171029 | 48 | 293 | 2.0 | 11.0 | 0.00 | 0.00 | 0.00 | 38 | 1018.8 |
| 20260501170527 | 49 | 294 | 5.0 | 11.0 | 0.00 | 0.00 | 0.00 | 36 | 1019.0 |
| 20260501170027 | 50 | 355 | 4.0 | 11.0 | 0.00 | 0.00 | 0.00 | 37 | 1019.0 |
| 20260501165527 | 49 | 12 | 3.0 | 12.0 | 0.00 | 0.00 | 0.00 | 38 | 1019.0 |
| 20260501165027 | 49 | 360 | 3.0 | 11.0 | 0.00 | 0.00 | 0.00 | 39 | 1018.9 |
| 20260501164537 | 48 | 299 | 1.0 | 9.0 | 0.00 | 0.00 | 0.00 | 39 | 1019.0 |
| 20260501164026 | 49 | 30 | 4.0 | 9.0 | 0.00 | 0.00 | 0.00 | 38 | 1019.1 |
| 20260501163525 | 49 | 5 | 1.0 | 8.0 | 0.00 | 0.00 | 0.00 | 39 | 1019.0 |
| 20260501163023 | 48 | 281 | 1.0 | 10.0 | 0.00 | 0.00 | 0.00 | 40 | 1019.0 |
| 20260501162523 | 48 | 12 | 3.0 | 10.0 | 0.00 | 0.00 | 0.00 | 40 | 1019.1 |
| 20260501161520 | 47 | 331 | 2.0 | 8.0 | 0.00 | 0.00 | 0.00 | 41 | 1019.0 |
| 20260501161019 | 48 | 311 | 4.0 | 8.0 | 0.00 | 0.00 | 0.00 | 41 | 1019.2 |
| 20260501160517 | 47 | 310 | 1.0 | 13.0 | 0.00 | 0.00 | 0.00 | 42 | 1019.1 |
| 20260501160017 | 46 | 355 | 6.0 | 15.0 | 0.00 | 0.00 | 0.00 | 41 | 1019.1 |
| 20260501155516 | 46 | 19 | 8.0 | 18.0 | 0.00 | 0.00 | 0.00 | 42 | 1019.1 |
| 20260501155014 | 47 | 24 | 9.0 | 18.0 | 0.00 | 0.00 | 0.00 | 43 | 1019.1 |
| 20260501154515 | 46 | 355 | 3.0 | 14.0 | 0.00 | 0.00 | 0.00 | 44 | 1019.1 |
| 20260501154015 | 46 | 5 | 6.0 | 12.0 | 0.00 | 0.00 | 0.00 | 44 | 1019.1 |
| 20260501153510 | 46 | 19 | 5.0 | 15.0 | 0.00 | 0.00 | 0.00 | 43 | 1019.1 |
| 20260501153013 | 46 | 39 | 8.0 | 16.0 | 0.00 | 0.00 | 0.00 | 44 | 1019.2 |